Time;durP1;ratioP1;P1;durP2;ratioP2;P2;SDS_P1;SDS_P2;PMS_P1;PMS_P2;Temp;Humidity;BMP_temperature;BMP_pressure;BME280_temperature;BME280_humidity;BME280_pressure;Samples;Min_cycle;Max_cycle;Signal;HPM_P1;HPM_P2
2023/10/22 00:00:35;;;;;;;12.88;3.90;;;;;;;;;;5116578;28;20027;-73
2023/10/22 00:03:20;;;;;;;10.82;3.90;;;;;;;;;;5097846;28;20012;-72
2023/10/22 00:06:06;;;;;;;9.05;3.50;;;;;;;;;;5116086;28;20069;-72
2023/10/22 00:08:52;;;;;;;11.10;3.40;;;;;;;;;;5076422;28;20039;-73
2023/10/22 00:11:37;;;;;;;10.73;3.88;;;;;;;;;;5096346;28;20024;-73
2023/10/22 00:14:23;;;;;;;12.88;3.30;;;;;;;;;;5095883;28;20020;-72
2023/10/22 00:17:08;;;;;;;11.10;3.58;;;;;;;;;;5095493;28;20349;-72
2023/10/22 00:19:54;;;;;;;11.60;4.00;;;;;;;;;;5095703;28;20398;-73
2023/10/22 00:22:39;;;;;;;8.65;3.90;;;;;;;;;;5081512;28;20115;-72
2023/10/22 00:25:25;;;;;;;9.40;4.40;;;;;;;;;;5080909;28;20020;-73
2023/10/22 00:28:11;;;;;;;12.82;4.22;;;;;;;;;;5095769;28;20356;-72
2023/10/22 00:30:56;;;;;;;13.77;4.00;;;;;;;;;;5081081;28;20066;-73
2023/10/22 00:33:42;;;;;;;12.18;3.97;;;;;;;;;;5095759;28;20089;-71
2023/10/22 00:36:28;;;;;;;15.73;4.28;;;;;;;;;;5095381;28;20415;-74
2023/10/22 00:39:14;;;;;;;11.05;3.92;;;;;;;;;;5080578;28;20085;-73
2023/10/22 00:41:59;;;;;;;12.00;3.90;;;;;;;;;;5080884;28;20062;-73
2023/10/22 00:44:45;;;;;;;13.95;3.92;;;;;;;;;;5095966;28;20016;-73
2023/10/22 00:47:30;;;;;;;17.70;4.45;;;;;;;;;;5095045;28;20016;-73
2023/10/22 00:50:16;;;;;;;22.17;4.60;;;;;;;;;;5082050;28;20116;-74
2023/10/22 00:53:03;;;;;;;13.38;5.03;;;;;;;;;;5116536;28;20459;-72
2023/10/22 00:55:49;;;;;;;13.48;6.03;;;;;;;;;;5115770;28;20023;-74
2023/10/22 00:58:34;;;;;;;16.23;6.30;;;;;;;;;;5115837;28;20069;-72
2023/10/22 01:01:21;;;;;;;18.17;7.07;;;;;;;;;;5101376;28;20020;-73
2023/10/22 01:04:07;;;;;;;23.17;8.93;;;;;;;;;;5115990;28;20020;-74
2023/10/22 01:06:52;;;;;;;23.95;9.35;;;;;;;;;;5114543;28;20034;-72
2023/10/22 01:09:38;;;;;;;20.10;9.15;;;;;;;;;;5101033;28;20030;-73
2023/10/22 01:12:32;;;;;;;24.77;9.85;;;;;;;;;;5115057;28;20058;-74
2023/10/22 01:15:17;;;;;;;24.73;10.70;;;;;;;;;;5115272;28;20020;-74
2023/10/22 01:18:03;;;;;;;26.05;10.80;;;;;;;;;;5099568;28;20091;-73
2023/10/22 01:20:49;;;;;;;19.70;9.32;;;;;;;;;;5115397;28;20052;-74
2023/10/22 01:23:38;;;;;;;21.98;8.85;;;;;;;;;;5099973;28;20131;-74
2023/10/22 01:26:24;;;;;;;19.80;8.48;;;;;;;;;;5114912;28;20111;-74
2023/10/22 01:29:10;;;;;;;24.50;9.20;;;;;;;;;;5099946;28;20034;-74
2023/10/22 01:31:55;;;;;;;27.77;11.15;;;;;;;;;;5114588;28;20020;-74
2023/10/22 01:34:41;;;;;;;24.77;10.35;;;;;;;;;;5114320;28;20043;-75
2023/10/22 01:37:27;;;;;;;24.90;10.70;;;;;;;;;;5115225;28;20088;-72
2023/10/22 01:40:12;;;;;;;26.58;10.45;;;;;;;;;;5114686;28;20030;-74
2023/10/22 01:42:58;;;;;;;24.05;11.02;;;;;;;;;;5114368;28;20023;-75
2023/10/22 01:45:44;;;;;;;21.88;9.45;;;;;;;;;;5114979;28;20019;-74
2023/10/22 01:48:30;;;;;;;19.67;8.38;;;;;;;;;;5114306;28;20016;-72
2023/10/22 01:51:16;;;;;;;22.67;8.80;;;;;;;;;;5114219;28;20123;-74
2023/10/22 01:54:01;;;;;;;21.42;7.90;;;;;;;;;;5113771;28;20016;-73
2023/10/22 01:56:47;;;;;;;20.10;8.65;;;;;;;;;;5114304;28;20366;-73
2023/10/22 01:59:33;;;;;;;22.58;8.23;;;;;;;;;;5100041;28;20026;-74
2023/10/22 02:02:18;;;;;;;23.08;8.25;;;;;;;;;;5114171;28;20461;-73
2023/10/22 02:05:04;;;;;;;14.98;6.72;;;;;;;;;;5112930;28;20095;-73
2023/10/22 02:07:50;;;;;;;19.70;6.07;;;;;;;;;;5113790;28;20065;-73
2023/10/22 02:10:35;;;;;;;16.58;6.80;;;;;;;;;;5113988;28;20020;-73
2023/10/22 02:13:21;;;;;;;14.45;5.78;;;;;;;;;;5114003;28;20019;-73
2023/10/22 02:16:06;;;;;;;14.77;5.80;;;;;;;;;;5094605;28;20016;-74
2023/10/22 02:18:52;;;;;;;13.25;5.30;;;;;;;;;;5082047;28;20028;-73
2023/10/22 02:21:38;;;;;;;14.60;6.15;;;;;;;;;;5094454;28;20027;-73
2023/10/22 02:24:23;;;;;;;14.07;5.18;;;;;;;;;;5094658;28;20012;-74
2023/10/22 02:27:09;;;;;;;14.18;6.03;;;;;;;;;;5080799;28;20067;-72
2023/10/22 02:29:54;;;;;;;19.73;6.28;;;;;;;;;;5093730;28;20472;-74
2023/10/22 02:32:40;;;;;;;12.68;5.97;;;;;;;;;;5095361;28;20059;-73
2023/10/22 02:35:26;;;;;;;19.77;5.90;;;;;;;;;;5094085;28;20035;-73
2023/10/22 02:38:15;;;;;;;19.75;6.50;;;;;;;;;;5079395;28;20046;-73
2023/10/22 02:41:02;;;;;;;15.75;5.57;;;;;;;;;;5079698;28;20070;-74
2023/10/22 02:43:47;;;;;;;13.73;5.43;;;;;;;;;;5095599;28;20020;-73
2023/10/22 02:46:33;;;;;;;15.73;5.00;;;;;;;;;;5096488;28;20024;-73
2023/10/22 02:49:19;;;;;;;15.23;5.85;;;;;;;;;;5105518;28;20076;-73
2023/10/22 02:52:05;;;;;;;16.80;5.78;;;;;;;;;;5109918;28;20051;-75
2023/10/22 02:54:51;;;;;;;22.70;5.70;;;;;;;;;;5109307;28;20122;-73
2023/10/22 02:57:36;;;;;;;18.75;5.65;;;;;;;;;;5108940;28;20056;-73
2023/10/22 03:00:22;;;;;;;11.77;5.13;;;;;;;;;;5102269;28;20026;-73
2023/10/22 03:03:08;;;;;;;10.27;4.47;;;;;;;;;;5099407;28;20012;-73
2023/10/22 03:05:57;;;;;;;11.40;5.03;;;;;;;;;;5097377;28;20054;-73
2023/10/22 03:08:42;;;;;;;10.43;4.45;;;;;;;;;;5098712;28;20036;-73
2023/10/22 03:11:28;;;;;;;13.63;4.78;;;;;;;;;;5098649;28;20023;-73
2023/10/22 03:14:19;;;;;;;12.82;4.38;;;;;;;;;;5098065;28;20463;-73
2023/10/22 03:17:05;;;;;;;17.65;4.45;;;;;;;;;;5098242;28;20146;-73
2023/10/22 03:19:51;;;;;;;14.05;4.65;;;;;;;;;;5084504;28;20364;-73
2023/10/22 03:22:37;;;;;;;13.18;4.20;;;;;;;;;;5096986;28;20488;-72
2023/10/22 03:25:23;;;;;;;16.90;4.10;;;;;;;;;;5097501;28;20456;-72
2023/10/22 03:28:08;;;;;;;9.35;4.38;;;;;;;;;;5083895;28;20020;-71
2023/10/22 03:30:54;;;;;;;13.57;4.28;;;;;;;;;;5083980;28;20027;-72
2023/10/22 03:33:39;;;;;;;9.02;3.80;;;;;;;;;;5083784;28;20364;-73
2023/10/22 03:36:25;;;;;;;16.73;4.47;;;;;;;;;;5083299;28;20497;-73
2023/10/22 03:39:13;;;;;;;13.18;4.57;;;;;;;;;;5097776;28;20433;-72
2023/10/22 03:41:59;;;;;;;11.32;4.75;;;;;;;;;;5098284;28;20111;-72
2023/10/22 03:44:45;;;;;;;13.10;4.50;;;;;;;;;;5097755;28;20012;-72
2023/10/22 03:47:30;;;;;;;12.48;3.88;;;;;;;;;;5098035;28;20023;-72
2023/10/22 03:50:16;;;;;;;13.90;4.03;;;;;;;;;;5095980;28;20028;-72
2023/10/22 03:53:01;;;;;;;20.15;4.65;;;;;;;;;;5097692;28;20040;-72
2023/10/22 03:55:47;;;;;;;19.08;4.82;;;;;;;;;;5083142;28;20020;-71
2023/10/22 03:58:33;;;;;;;16.30;5.05;;;;;;;;;;5097635;28;20016;-72
2023/10/22 04:01:18;;;;;;;15.35;4.50;;;;;;;;;;5097326;28;20017;-72
2023/10/22 04:04:04;;;;;;;16.67;5.00;;;;;;;;;;5097402;28;20013;-72
2023/10/22 04:06:51;;;;;;;16.10;4.68;;;;;;;;;;5098192;28;20020;-72
2023/10/22 04:09:36;;;;;;;14.63;4.88;;;;;;;;;;5098028;28;20461;-72
2023/10/22 04:12:22;;;;;;;13.57;4.90;;;;;;;;;;5097259;28;20039;-73
2023/10/22 04:15:08;;;;;;;12.82;4.97;;;;;;;;;;5083707;28;20117;-71
2023/10/22 04:17:54;;;;;;;10.00;5.53;;;;;;;;;;5096774;28;20024;-72
2023/10/22 04:20:40;;;;;;;11.80;5.70;;;;;;;;;;5096500;28;20082;-73
2023/10/22 04:23:26;;;;;;;15.63;5.55;;;;;;;;;;5096507;28;20440;-73
2023/10/22 04:26:15;;;;;;;17.70;6.18;;;;;;;;;;5083836;28;20040;-71
2023/10/22 04:29:00;;;;;;;14.85;5.80;;;;;;;;;;5083135;28;20052;-72
2023/10/22 04:31:46;;;;;;;18.80;5.75;;;;;;;;;;5097089;28;20020;-73
2023/10/22 04:34:32;;;;;;;14.38;5.15;;;;;;;;;;5095596;28;20031;-72
2023/10/22 04:37:19;;;;;;;14.98;5.32;;;;;;;;;;5097004;28;20026;-72
2023/10/22 04:40:06;;;;;;;13.63;5.57;;;;;;;;;;5081599;28;20333;-72
2023/10/22 04:42:56;;;;;;;12.55;5.82;;;;;;;;;;5097744;28;20399;-73
2023/10/22 04:45:49;;;;;;;14.80;5.43;;;;;;;;;;5096218;28;20115;-73
2023/10/22 04:48:34;;;;;;;16.02;5.72;;;;;;;;;;5095867;28;20035;-73
2023/10/22 04:51:21;;;;;;;17.88;5.60;;;;;;;;;;5097137;28;20063;-72
2023/10/22 04:54:07;;;;;;;14.32;5.63;;;;;;;;;;5082660;28;20023;-72
2023/10/22 04:56:52;;;;;;;15.82;5.80;;;;;;;;;;5095399;28;20024;-73
2023/10/22 04:59:38;;;;;;;14.27;5.38;;;;;;;;;;5096030;28;20058;-73
2023/10/22 05:02:24;;;;;;;17.80;5.70;;;;;;;;;;5096151;28;20368;-72
2023/10/22 05:05:09;;;;;;;18.30;6.00;;;;;;;;;;5097248;28;20028;-73
2023/10/22 05:07:55;;;;;;;22.55;5.95;;;;;;;;;;5082739;28;20059;-73
2023/10/22 05:10:41;;;;;;;21.17;5.72;;;;;;;;;;5095322;28;20306;-73
2023/10/22 05:13:26;;;;;;;17.10;5.50;;;;;;;;;;5095627;28;20436;-74
2023/10/22 05:16:12;;;;;;;18.75;6.18;;;;;;;;;;5096383;28;20038;-73
2023/10/22 05:18:58;;;;;;;20.30;5.97;;;;;;;;;;5096199;28;20024;-74
2023/10/22 05:21:44;;;;;;;17.33;5.22;;;;;;;;;;5096009;28;20020;-73
2023/10/22 05:24:30;;;;;;;16.70;5.68;;;;;;;;;;5096430;28;20022;-73
2023/10/22 05:27:16;;;;;;;20.13;5.85;;;;;;;;;;5095566;28;20047;-73
2023/10/22 05:30:02;;;;;;;21.20;6.72;;;;;;;;;;5095888;28;20059;-73
2023/10/22 05:32:48;;;;;;;31.23;7.57;;;;;;;;;;5095830;28;20024;-73
2023/10/22 05:35:37;;;;;;;31.10;7.13;;;;;;;;;;5095947;28;20041;-72
2023/10/22 05:38:22;;;;;;;24.17;6.55;;;;;;;;;;5095552;28;20047;-73
2023/10/22 05:41:09;;;;;;;19.90;7.22;;;;;;;;;;5080822;28;20024;-73
2023/10/22 05:44:01;;;;;;;27.67;6.78;;;;;;;;;;5081207;28;20019;-73
2023/10/22 05:46:47;;;;;;;25.30;5.95;;;;;;;;;;5095937;28;20020;-72
2023/10/22 05:49:32;;;;;;;24.10;6.82;;;;;;;;;;5094863;28;20016;-73
2023/10/22 05:52:18;;;;;;;23.88;7.03;;;;;;;;;;5081478;28;20075;-73
2023/10/22 05:55:04;;;;;;;30.02;7.75;;;;;;;;;;5094952;28;20082;-72
2023/10/22 05:57:50;;;;;;;26.55;7.00;;;;;;;;;;5096477;28;20059;-72
2023/10/22 06:00:38;;;;;;;32.28;7.82;;;;;;;;;;5095049;28;20099;-72
2023/10/22 06:03:23;;;;;;;18.88;7.35;;;;;;;;;;5096362;28;20016;-72
2023/10/22 06:06:10;;;;;;;18.20;7.35;;;;;;;;;;5095635;28;20028;-72
2023/10/22 06:08:55;;;;;;;25.98;8.63;;;;;;;;;;5096278;28;20103;-73
2023/10/22 06:11:41;;;;;;;31.65;9.15;;;;;;;;;;5105926;28;20034;-74
2023/10/22 06:14:27;;;;;;;23.27;7.40;;;;;;;;;;5107152;28;20031;-73
2023/10/22 06:17:12;;;;;;;25.55;9.57;;;;;;;;;;5091335;28;20020;-73
2023/10/22 06:19:59;;;;;;;23.83;9.80;;;;;;;;;;5111397;28;20344;-72
2023/10/22 06:22:45;;;;;;;23.88;9.57;;;;;;;;;;5113978;28;20024;-73
2023/10/22 06:25:34;;;;;;;22.70;9.48;;;;;;;;;;5107899;28;20032;-72
2023/10/22 06:28:19;;;;;;;26.30;9.52;;;;;;;;;;5113040;28;20027;-73
2023/10/22 06:31:09;;;;;;;22.58;10.43;;;;;;;;;;5098557;28;20024;-75
2023/10/22 06:33:55;;;;;;;24.90;10.88;;;;;;;;;;5112539;28;20020;-73
2023/10/22 06:36:41;;;;;;;26.42;11.13;;;;;;;;;;5112233;28;20048;-73
2023/10/22 06:39:27;;;;;;;24.77;12.07;;;;;;;;;;5098401;28;20482;-72
2023/10/22 06:42:12;;;;;;;23.02;10.23;;;;;;;;;;5107795;28;20410;-73
2023/10/22 06:44:58;;;;;;;24.33;10.70;;;;;;;;;;5113462;28;20078;-72
2023/10/22 06:47:43;;;;;;;26.77;10.95;;;;;;;;;;5113010;28;20004;-74
2023/10/22 06:50:29;;;;;;;25.60;11.40;;;;;;;;;;5109940;28;20007;-74
2023/10/22 06:53:15;;;;;;;21.77;10.85;;;;;;;;;;5089152;28;20029;-74
2023/10/22 06:56:02;;;;;;;23.45;10.95;;;;;;;;;;5090006;28;20051;-76
2023/10/22 06:58:47;;;;;;;20.23;10.13;;;;;;;;;;5086741;28;20016;-74
2023/10/22 07:01:33;;;;;;;23.17;10.20;;;;;;;;;;5075508;28;20078;-74
2023/10/22 07:04:18;;;;;;;21.27;9.95;;;;;;;;;;5074237;28;20020;-74
2023/10/22 07:07:04;;;;;;;25.60;10.88;;;;;;;;;;5076709;28;20021;-72
2023/10/22 07:09:50;;;;;;;23.98;10.48;;;;;;;;;;5075652;28;20465;-73
2023/10/22 07:12:35;;;;;;;23.70;10.55;;;;;;;;;;5087427;28;20015;-74
2023/10/22 07:15:21;;;;;;;26.30;10.75;;;;;;;;;;5077132;28;20415;-74
2023/10/22 07:18:06;;;;;;;26.92;10.82;;;;;;;;;;5075431;28;20116;-74
2023/10/22 07:20:52;;;;;;;24.50;11.05;;;;;;;;;;5092450;28;20031;-73
2023/10/22 07:23:38;;;;;;;24.58;10.30;;;;;;;;;;5094567;28;20005;-72
2023/10/22 07:26:23;;;;;;;22.98;10.25;;;;;;;;;;5094423;28;20087;-72
2023/10/22 07:29:09;;;;;;;22.77;9.85;;;;;;;;;;5091961;28;20080;-73
2023/10/22 07:31:54;;;;;;;22.17;10.68;;;;;;;;;;5093987;28;20039;-73
2023/10/22 07:34:40;;;;;;;29.98;11.30;;;;;;;;;;5099827;28;20021;-72
2023/10/22 07:37:25;;;;;;;24.92;10.65;;;;;;;;;;5098595;28;20016;-72
2023/10/22 07:40:13;;;;;;;23.70;11.18;;;;;;;;;;5090888;28;20381;-74
2023/10/22 07:42:58;;;;;;;23.85;10.48;;;;;;;;;;5098557;28;20032;-73
2023/10/22 07:45:45;;;;;;;32.95;10.65;;;;;;;;;;5085584;28;20020;-73
2023/10/22 07:48:31;;;;;;;27.73;10.43;;;;;;;;;;5084691;28;20020;-73
2023/10/22 07:51:18;;;;;;;28.10;9.55;;;;;;;;;;5107259;28;20036;-73
2023/10/22 07:54:03;;;;;;;23.73;9.70;;;;;;;;;;5105870;28;20039;-73
2023/10/22 07:56:49;;;;;;;26.00;8.93;;;;;;;;;;5119703;28;20004;-74
2023/10/22 07:59:35;;;;;;;24.77;9.20;;;;;;;;;;5118123;28;20427;-72
2023/10/22 08:02:20;;;;;;;23.75;9.70;;;;;;;;;;5084447;28;20031;-73
2023/10/22 08:05:06;;;;;;;23.70;8.68;;;;;;;;;;5095773;28;20012;-71
2023/10/22 08:07:52;;;;;;;26.77;8.65;;;;;;;;;;5116940;28;20027;-72
2023/10/22 08:10:37;;;;;;;19.55;8.50;;;;;;;;;;5117195;28;20023;-72
2023/10/22 08:13:23;;;;;;;23.08;8.32;;;;;;;;;;5104032;28;20031;-71
2023/10/22 08:16:09;;;;;;;17.48;7.97;;;;;;;;;;5116614;28;20487;-72
2023/10/22 08:18:54;;;;;;;19.23;8.07;;;;;;;;;;5116690;28;20027;-72
2023/10/22 08:21:40;;;;;;;20.20;7.53;;;;;;;;;;5115072;28;20030;-71
2023/10/22 08:24:26;;;;;;;21.30;7.63;;;;;;;;;;5116353;28;20104;-72
2023/10/22 08:27:11;;;;;;;24.75;7.30;;;;;;;;;;5101311;28;20028;-72
2023/10/22 08:29:57;;;;;;;20.60;7.78;;;;;;;;;;5117111;28;20404;-71
2023/10/22 08:32:47;;;;;;;14.05;7.25;;;;;;;;;;5117587;28;20110;-72
2023/10/22 08:35:32;;;;;;;15.82;7.35;;;;;;;;;;5117664;28;20023;-72
2023/10/22 08:38:18;;;;;;;21.48;7.97;;;;;;;;;;5117161;28;20443;-72
2023/10/22 08:41:06;;;;;;;16.15;7.45;;;;;;;;;;5101982;28;20016;-72
2023/10/22 08:43:51;;;;;;;23.95;7.88;;;;;;;;;;5115356;28;20396;-71
2023/10/22 08:46:37;;;;;;;24.95;8.25;;;;;;;;;;5117739;28;20023;-72
2023/10/22 08:49:23;;;;;;;25.67;8.10;;;;;;;;;;5112444;27;20030;-72
2023/10/22 08:52:09;;;;;;;27.25;7.72;;;;;;;;;;5135872;27;20042;-73
2023/10/22 08:54:54;;;;;;;29.23;8.60;;;;;;;;;;5095506;28;20345;-72
2023/10/22 08:57:40;;;;;;;18.80;7.60;;;;;;;;;;5095133;28;20024;-73
2023/10/22 09:00:27;;;;;;;17.80;6.93;;;;;;;;;;5094947;28;20020;-72
2023/10/22 09:03:14;;;;;;;19.08;6.97;;;;;;;;;;5096061;28;20020;-73
2023/10/22 09:06:01;;;;;;;17.35;7.53;;;;;;;;;;5095170;28;20020;-74
2023/10/22 09:08:46;;;;;;;24.98;8.18;;;;;;;;;;5095221;28;20020;-73
2023/10/22 09:11:32;;;;;;;17.30;6.97;;;;;;;;;;5096431;28;20345;-73
2023/10/22 09:14:21;;;;;;;18.88;7.28;;;;;;;;;;5095558;28;20368;-73
2023/10/22 09:17:17;;;;;;;19.10;7.28;;;;;;;;;;5096327;28;20023;-74
2023/10/22 09:20:19;;;;;;;23.70;7.25;;;;;;;;;;5096298;28;20012;-73
2023/10/22 09:23:12;;;;;;;15.00;6.65;;;;;;;;;;5095968;28;20016;-72
2023/10/22 09:25:58;;;;;;;14.48;6.40;;;;;;;;;;5096022;28;20020;-73
2023/10/22 09:28:46;;;;;;;23.20;7.60;;;;;;;;;;5095180;28;20028;-73
2023/10/22 09:31:31;;;;;;;24.58;7.82;;;;;;;;;;5080063;28;20020;-73
2023/10/22 09:34:26;;;;;;;17.50;5.93;;;;;;;;;;5094679;28;20356;-73
2023/10/22 09:37:12;;;;;;;22.23;5.88;;;;;;;;;;5094725;28;20027;-72
2023/10/22 09:39:58;;;;;;;17.10;5.80;;;;;;;;;;5080712;28;20020;-73
2023/10/22 09:42:44;;;;;;;25.17;6.15;;;;;;;;;;5094745;28;20360;-72
2023/10/22 09:45:30;;;;;;;19.40;6.45;;;;;;;;;;5094413;28;20013;-73
2023/10/22 09:48:16;;;;;;;23.38;6.03;;;;;;;;;;5080564;28;20027;-71
2023/10/22 09:51:05;;;;;;;14.50;5.25;;;;;;;;;;5094444;28;20036;-72
2023/10/22 09:53:52;;;;;;;20.58;5.40;;;;;;;;;;5108798;28;20403;-71
2023/10/22 09:56:47;;;;;;;12.77;5.00;;;;;;;;;;5114666;28;20030;-71
2023/10/22 09:59:33;;;;;;;15.52;5.55;;;;;;;;;;5114709;28;20016;-71
2023/10/22 10:02:20;;;;;;;16.02;5.10;;;;;;;;;;5114358;28;20012;-71
2023/10/22 10:05:06;;;;;;;15.95;5.68;;;;;;;;;;5115398;28;20054;-71
2023/10/22 10:07:52;;;;;;;22.63;8.23;;;;;;;;;;5113847;28;20399;-70
2023/10/22 10:10:39;;;;;;;13.85;7.05;;;;;;;;;;5114217;28;20496;-72
2023/10/22 10:13:25;;;;;;;24.58;7.68;;;;;;;;;;5114051;28;20439;-73
2023/10/22 10:16:10;;;;;;;14.68;5.30;;;;;;;;;;5113376;28;20024;-71
2023/10/22 10:19:03;;;;;;;18.15;5.63;;;;;;;;;;5114138;28;20026;-73
2023/10/22 10:21:50;;;;;;;23.52;5.97;;;;;;;;;;5113878;28;20023;-73
2023/10/22 10:24:36;;;;;;;16.58;5.43;;;;;;;;;;5099181;28;20026;-73
2023/10/22 10:27:21;;;;;;;13.57;4.38;;;;;;;;;;5114995;28;20030;-72
2023/10/22 10:30:14;;;;;;;12.63;4.22;;;;;;;;;;5113120;28;20015;-72
2023/10/22 10:33:00;;;;;;;15.52;4.95;;;;;;;;;;5114598;28;20031;-73
2023/10/22 10:35:46;;;;;;;15.43;4.32;;;;;;;;;;5114326;28;20391;-73
2023/10/22 10:38:32;;;;;;;15.98;5.35;;;;;;;;;;5113696;28;20051;-72
2023/10/22 10:41:40;;;;;;;15.70;5.35;;;;;;;;;;5113794;28;20493;-72
2023/10/22 10:44:28;;;;;;;12.93;4.40;;;;;;;;;;5113875;28;20078;-73
2023/10/22 10:47:20;;;;;;;13.15;4.25;;;;;;;;;;5114519;28;20015;-72
2023/10/22 10:50:05;;;;;;;11.20;4.60;;;;;;;;;;5114404;28;20027;-72
2023/10/22 10:52:56;;;;;;;16.38;4.93;;;;;;;;;;5113147;28;20043;-72
2023/10/22 10:55:41;;;;;;;15.30;5.10;;;;;;;;;;5097964;28;20093;-73
2023/10/22 10:58:27;;;;;;;20.13;5.57;;;;;;;;;;5114422;28;20034;-73
2023/10/22 11:01:13;;;;;;;14.45;5.15;;;;;;;;;;5113078;28;20027;-73
2023/10/22 11:04:06;;;;;;;28.75;6.03;;;;;;;;;;5113481;28;20451;-72
2023/10/22 11:06:51;;;;;;;30.15;5.47;;;;;;;;;;5113691;28;20027;-72
2023/10/22 11:09:38;;;;;;;18.25;5.05;;;;;;;;;;5101864;28;20027;-73
2023/10/22 11:12:24;;;;;;;17.60;4.82;;;;;;;;;;5118603;28;20100;-72
2023/10/22 11:15:11;;;;;;;14.48;4.25;;;;;;;;;;5117987;28;20028;-73
2023/10/22 11:17:59;;;;;;;22.83;5.88;;;;;;;;;;5116708;28;20019;-73
2023/10/22 11:20:55;;;;;;;13.38;4.63;;;;;;;;;;5118823;28;20016;-73
2023/10/22 11:23:40;;;;;;;11.50;4.32;;;;;;;;;;5118642;28;20076;-73
2023/10/22 11:26:26;;;;;;;18.40;5.28;;;;;;;;;;5123668;27;20019;-72
2023/10/22 11:29:12;;;;;;;16.00;5.78;;;;;;;;;;5122467;27;20012;-73
2023/10/22 11:31:58;;;;;;;15.38;5.10;;;;;;;;;;5138397;27;20055;-70
2023/10/22 11:34:47;;;;;;;18.98;5.78;;;;;;;;;;5137460;27;20027;-69
2023/10/22 11:37:41;;;;;;;14.77;5.15;;;;;;;;;;5137532;27;20024;-70
2023/10/22 11:40:30;;;;;;;15.60;4.82;;;;;;;;;;5123632;27;20076;-69
2023/10/22 11:43:16;;;;;;;16.75;6.75;;;;;;;;;;5137874;27;20019;-70
2023/10/22 11:46:02;;;;;;;15.63;5.53;;;;;;;;;;5138143;27;20045;-70
2023/10/22 11:48:47;;;;;;;13.68;4.80;;;;;;;;;;5137804;27;20418;-70
2023/10/22 11:51:45;;;;;;;19.63;5.35;;;;;;;;;;5136534;27;20061;-71
2023/10/22 11:54:44;;;;;;;17.92;5.78;;;;;;;;;;5117704;27;20138;-70
2023/10/22 11:57:30;;;;;;;27.30;7.13;;;;;;;;;;5117348;28;20032;-71
2023/10/22 12:00:16;;;;;;;18.80;6.28;;;;;;;;;;5117810;28;20035;-71
2023/10/22 12:03:01;;;;;;;19.95;7.78;;;;;;;;;;5116868;28;20020;-70
2023/10/22 12:05:47;;;;;;;15.80;6.18;;;;;;;;;;5123769;28;20114;-68
2023/10/22 12:08:32;;;;;;;19.33;5.85;;;;;;;;;;5129349;28;20035;-69
2023/10/22 12:11:18;;;;;;;11.35;4.50;;;;;;;;;;5117609;28;20125;-69
2023/10/22 12:14:04;;;;;;;9.20;3.80;;;;;;;;;;5120344;28;20020;-70
2023/10/22 12:16:50;;;;;;;23.23;4.75;;;;;;;;;;5123787;28;20074;-69
2023/10/22 12:19:35;;;;;;;11.50;4.18;;;;;;;;;;5117740;28;20359;-69
2023/10/22 12:22:21;;;;;;;13.40;4.07;;;;;;;;;;5114522;28;20430;-71
2023/10/22 12:25:07;;;;;;;7.97;3.75;;;;;;;;;;5115976;28;20022;-74
2023/10/22 12:27:53;;;;;;;16.98;4.07;;;;;;;;;;5102607;28;20451;-75
2023/10/22 12:30:39;;;;;;;9.35;3.67;;;;;;;;;;5101914;28;20039;-76
2023/10/22 12:33:25;;;;;;;12.88;4.03;;;;;;;;;;5103370;27;20030;-75
2023/10/22 12:36:10;;;;;;;13.50;4.40;;;;;;;;;;5115657;28;20436;-72
2023/10/22 12:38:56;;;;;;;11.18;4.43;;;;;;;;;;5116040;28;20031;-75
2023/10/22 12:41:42;;;;;;;13.07;5.85;;;;;;;;;;5100120;28;20019;-75
2023/10/22 12:44:27;;;;;;;13.00;5.35;;;;;;;;;;5099408;28;20074;-75
2023/10/22 12:47:13;;;;;;;11.20;5.53;;;;;;;;;;5101486;28;20012;-76
2023/10/22 12:49:59;;;;;;;17.58;6.03;;;;;;;;;;5101699;28;20020;-76
2023/10/22 12:52:44;;;;;;;13.90;5.80;;;;;;;;;;5099749;28;20101;-72
2023/10/22 12:55:30;;;;;;;15.95;5.55;;;;;;;;;;5115705;28;20455;-70
2023/10/22 12:58:16;;;;;;;13.93;5.85;;;;;;;;;;5116273;28;20420;-70
2023/10/22 13:01:04;;;;;;;13.80;6.70;;;;;;;;;;5102053;28;20020;-72
2023/10/22 13:03:49;;;;;;;15.73;6.03;;;;;;;;;;5115173;28;20016;-72
2023/10/22 13:06:35;;;;;;;17.42;6.18;;;;;;;;;;5115948;28;20015;-71
2023/10/22 13:09:21;;;;;;;20.60;6.75;;;;;;;;;;5114162;28;20023;-71
2023/10/22 13:12:06;;;;;;;13.73;5.85;;;;;;;;;;5115280;28;20019;-71
2023/10/22 13:14:53;;;;;;;15.32;7.47;;;;;;;;;;5115443;28;20055;-71
2023/10/22 13:17:39;;;;;;;19.80;8.68;;;;;;;;;;5115032;28;20135;-71
2023/10/22 13:20:24;;;;;;;19.13;6.97;;;;;;;;;;5115140;28;20027;-70
2023/10/22 13:23:13;;;;;;;16.92;6.00;;;;;;;;;;5115046;28;20100;-73
2023/10/22 13:25:59;;;;;;;13.45;6.47;;;;;;;;;;5114419;28;20023;-73
2023/10/22 13:28:44;;;;;;;16.25;6.03;;;;;;;;;;5099618;28;20428;-73
2023/10/22 13:31:30;;;;;;;17.10;6.68;;;;;;;;;;5114507;28;20024;-73
2023/10/22 13:34:15;;;;;;;20.85;6.95;;;;;;;;;;5114423;28;20023;-72
2023/10/22 13:37:01;;;;;;;19.70;6.00;;;;;;;;;;5115183;28;20063;-72
2023/10/22 13:39:47;;;;;;;15.32;5.60;;;;;;;;;;5114952;28;20034;-74
2023/10/22 13:42:32;;;;;;;16.50;5.50;;;;;;;;;;5101023;28;20012;-73
2023/10/22 13:45:18;;;;;;;13.93;5.40;;;;;;;;;;5113742;28;20020;-73
2023/10/22 13:48:04;;;;;;;17.10;5.63;;;;;;;;;;5114614;28;20197;-72
2023/10/22 13:50:50;;;;;;;22.35;6.18;;;;;;;;;;5113915;28;20418;-73
2023/10/22 13:53:35;;;;;;;20.98;6.07;;;;;;;;;;5112778;28;20140;-73
2023/10/22 13:56:21;;;;;;;24.02;5.60;;;;;;;;;;5104839;28;20027;-73
2023/10/22 13:59:10;;;;;;;20.35;5.53;;;;;;;;;;5102498;28;20094;-74
2023/10/22 14:01:56;;;;;;;21.83;5.47;;;;;;;;;;5114153;28;20015;-74
2023/10/22 14:04:41;;;;;;;23.20;5.18;;;;;;;;;;5100024;28;20016;-75
2023/10/22 14:07:28;;;;;;;16.60;5.43;;;;;;;;;;5099179;28;20374;-74
2023/10/22 14:10:14;;;;;;;20.75;5.38;;;;;;;;;;5099976;28;20020;-73
2023/10/22 14:13:00;;;;;;;19.02;5.68;;;;;;;;;;5114468;28;20020;-73
2023/10/22 14:15:47;;;;;;;25.13;4.80;;;;;;;;;;5115115;28;20055;-73
2023/10/22 14:18:32;;;;;;;16.50;4.97;;;;;;;;;;5115732;28;20077;-73
2023/10/22 14:21:20;;;;;;;15.98;5.22;;;;;;;;;;5115013;28;20031;-73
2023/10/22 14:24:06;;;;;;;21.42;6.05;;;;;;;;;;5116176;28;20440;-74
2023/10/22 14:26:51;;;;;;;20.02;5.30;;;;;;;;;;5114929;28;20027;-73
2023/10/22 14:29:37;;;;;;;14.70;4.82;;;;;;;;;;5114543;28;20170;-73
2023/10/22 14:32:22;;;;;;;13.82;5.07;;;;;;;;;;5098966;28;20471;-73
2023/10/22 14:35:08;;;;;;;17.33;5.95;;;;;;;;;;5114514;28;20019;-73
2023/10/22 14:37:54;;;;;;;22.52;6.05;;;;;;;;;;5114602;28;20098;-73
2023/10/22 14:40:40;;;;;;;24.10;6.85;;;;;;;;;;5113598;28;20107;-73
2023/10/22 14:43:25;;;;;;;24.38;6.60;;;;;;;;;;5114442;28;20030;-73
2023/10/22 14:46:11;;;;;;;21.33;7.10;;;;;;;;;;5115726;28;20020;-74
2023/10/22 14:48:57;;;;;;;21.77;7.20;;;;;;;;;;5113684;28;20028;-73
2023/10/22 14:51:43;;;;;;;22.20;7.15;;;;;;;;;;5113764;28;20126;-74
2023/10/22 14:54:29;;;;;;;20.20;6.32;;;;;;;;;;5114883;28;20074;-72
2023/10/22 14:57:15;;;;;;;15.23;5.30;;;;;;;;;;5098407;28;20028;-73
2023/10/22 15:00:00;;;;;;;17.15;5.38;;;;;;;;;;5113657;28;20020;-74
2023/10/22 15:02:46;;;;;;;23.95;5.70;;;;;;;;;;5114598;28;20027;-74
2023/10/22 15:05:32;;;;;;;24.27;6.45;;;;;;;;;;5115204;28;20347;-73
2023/10/22 15:08:17;;;;;;;18.95;5.53;;;;;;;;;;5114703;28;20440;-74
2023/10/22 15:11:03;;;;;;;19.40;5.47;;;;;;;;;;5099314;28;20016;-74
2023/10/22 15:13:50;;;;;;;16.25;5.45;;;;;;;;;;5114304;28;20023;-74
2023/10/22 15:16:35;;;;;;;19.20;5.22;;;;;;;;;;5098972;28;20034;-74
2023/10/22 15:19:21;;;;;;;24.00;5.68;;;;;;;;;;5112895;28;20102;-74
2023/10/22 15:22:06;;;;;;;17.27;5.75;;;;;;;;;;5100186;28;20031;-74
2023/10/22 15:24:52;;;;;;;22.33;5.65;;;;;;;;;;5113549;28;20388;-75
2023/10/22 15:27:38;;;;;;;16.38;5.80;;;;;;;;;;5098804;28;20023;-75
2023/10/22 15:30:26;;;;;;;18.33;5.55;;;;;;;;;;5112085;28;20020;-74
2023/10/22 15:33:12;;;;;;;25.95;5.75;;;;;;;;;;5098478;28;20024;-74
2023/10/22 15:35:58;;;;;;;20.65;5.70;;;;;;;;;;5114666;28;20019;-74
2023/10/22 15:38:44;;;;;;;18.17;5.13;;;;;;;;;;5113448;28;20090;-75
2023/10/22 15:41:30;;;;;;;16.60;5.53;;;;;;;;;;5099053;28;20035;-75
2023/10/22 15:44:16;;;;;;;18.40;5.72;;;;;;;;;;5098882;28;20359;-74
2023/10/22 15:47:01;;;;;;;16.20;5.45;;;;;;;;;;5113048;28;20027;-75
2023/10/22 15:49:47;;;;;;;14.77;5.60;;;;;;;;;;5098973;28;20066;-75
2023/10/22 15:52:32;;;;;;;15.80;4.90;;;;;;;;;;5078819;28;20044;-74
2023/10/22 15:55:18;;;;;;;15.45;5.60;;;;;;;;;;5099667;28;20100;-75
2023/10/22 15:58:04;;;;;;;18.45;5.15;;;;;;;;;;5102310;28;20038;-75
2023/10/22 16:00:50;;;;;;;16.25;5.88;;;;;;;;;;5116192;28;20420;-75
2023/10/22 16:03:36;;;;;;;18.23;5.85;;;;;;;;;;5117076;28;20417;-75
2023/10/22 16:06:22;;;;;;;24.85;6.38;;;;;;;;;;5117699;28;20444;-75
2023/10/22 16:09:09;;;;;;;21.38;6.28;;;;;;;;;;5118001;28;20364;-74
2023/10/22 16:11:54;;;;;;;23.92;6.35;;;;;;;;;;5117236;28;20066;-75
2023/10/22 16:14:40;;;;;;;24.45;6.90;;;;;;;;;;5117936;28;20089;-76
2023/10/22 16:17:25;;;;;;;21.20;7.38;;;;;;;;;;5108534;28;20333;-75
2023/10/22 16:20:12;;;;;;;34.20;9.05;;;;;;;;;;5117063;28;20027;-75